sensor_id;sensor_type;location;lat;lon;timestamp;pressure;altitude;pressure_sealevel;temperature;humidity
31082;BME280;17737;52.586;13.284;2023-01-28T00:02:01;102271.38;;;-1.13;83.41
31082;BME280;17737;52.586;13.284;2023-01-28T00:04:29;102266.13;;;-1.15;83.42
31082;BME280;17737;52.586;13.284;2023-01-28T00:06:57;102263.31;;;-1.10;83.47
31082;BME280;17737;52.586;13.284;2023-01-28T00:09:27;102271.56;;;-1.18;83.53
31082;BME280;17737;52.586;13.284;2023-01-28T00:11:55;102264.00;;;-1.29;83.88
31082;BME280;17737;52.586;13.284;2023-01-28T00:14:23;102266.84;;;-1.33;84.10
31082;BME280;17737;52.586;13.284;2023-01-28T00:16:51;102279.19;;;-1.34;84.27
31082;BME280;17737;52.586;13.284;2023-01-28T00:19:19;102278.38;;;-1.36;84.34
31082;BME280;17737;52.586;13.284;2023-01-28T00:21:47;102280.94;;;-1.34;84.45
31082;BME280;17737;52.586;13.284;2023-01-28T00:24:15;102279.88;;;-1.29;84.14
31082;BME280;17737;52.586;13.284;2023-01-28T00:26:45;102281.59;;;-1.28;84.45
31082;BME280;17737;52.586;13.284;2023-01-28T00:29:13;102287.88;;;-1.30;84.18
31082;BME280;17737;52.586;13.284;2023-01-28T00:31:40;102292.16;;;-1.28;84.40
31082;BME280;17737;52.586;13.284;2023-01-28T00:34:08;102278.66;;;-1.20;84.21
31082;BME280;17737;52.586;13.284;2023-01-28T00:36:36;102274.41;;;-1.24;83.76
31082;BME280;17737;52.586;13.284;2023-01-28T00:39:05;102286.53;;;-1.18;83.91
31082;BME280;17737;52.586;13.284;2023-01-28T00:41:33;102285.28;;;-1.08;83.37
31082;BME280;17737;52.586;13.284;2023-01-28T00:44:03;102285.41;;;-1.11;83.20
31082;BME280;17737;52.586;13.284;2023-01-28T00:46:31;102280.81;;;-1.06;83.03
31082;BME280;17737;52.586;13.284;2023-01-28T00:48:59;102280.91;;;-1.09;83.17
31082;BME280;17737;52.586;13.284;2023-01-28T00:51:27;102276.38;;;-1.06;82.81
31082;BME280;17737;52.586;13.284;2023-01-28T00:53:55;102280.69;;;-1.03;82.84
31082;BME280;17737;52.586;13.284;2023-01-28T00:56:23;102284.00;;;-0.98;82.79
31082;BME280;17737;52.586;13.284;2023-01-28T00:58:51;102278.38;;;-0.89;82.60
31082;BME280;17737;52.586;13.284;2023-01-28T01:01:22;102283.34;;;-0.80;82.08
31082;BME280;17737;52.586;13.284;2023-01-28T01:03:53;102283.06;;;-0.74;81.90
31082;BME280;17737;52.586;13.284;2023-01-28T01:06:28;102294.66;;;-0.77;81.57
31082;BME280;17737;52.586;13.284;2023-01-28T01:08:58;102288.44;;;-0.54;80.93
31082;BME280;17737;52.586;13.284;2023-01-28T01:11:26;102277.31;;;-0.62;81.02
31082;BME280;17737;52.586;13.284;2023-01-28T01:13:56;102285.31;;;-0.42;80.69
31082;BME280;17737;52.586;13.284;2023-01-28T01:16:28;102282.06;;;-0.49;80.58
31082;BME280;17737;52.586;13.284;2023-01-28T01:18:58;102280.41;;;-0.51;80.71
31082;BME280;17737;52.586;13.284;2023-01-28T01:21:28;102282.38;;;-0.35;80.07
31082;BME280;17737;52.586;13.284;2023-01-28T01:23:57;102279.66;;;-0.33;79.60
31082;BME280;17737;52.586;13.284;2023-01-28T01:26:25;102283.59;;;-0.43;79.53
31082;BME280;17737;52.586;13.284;2023-01-28T01:28:53;102284.28;;;-0.38;79.64
31082;BME280;17737;52.586;13.284;2023-01-28T01:31:21;102285.94;;;-0.14;79.15
31082;BME280;17737;52.586;13.284;2023-01-28T01:33:51;102291.25;;;-0.14;78.56
31082;BME280;17737;52.586;13.284;2023-01-28T01:36:19;102290.31;;;-0.13;78.65
31082;BME280;17737;52.586;13.284;2023-01-28T01:38:52;102297.13;;;-0.08;78.36
31082;BME280;17737;52.586;13.284;2023-01-28T01:41:24;102292.13;;;-0.15;78.84
31082;BME280;17737;52.586;13.284;2023-01-28T01:43:56;102286.06;;;-0.17;79.02
31082;BME280;17737;52.586;13.284;2023-01-28T01:46:33;102291.53;;;-0.22;78.68
31082;BME280;17737;52.586;13.284;2023-01-28T01:49:14;102290.97;;;-0.08;78.69
31082;BME280;17737;52.586;13.284;2023-01-28T01:51:50;102294.38;;;-0.26;79.35
31082;BME280;17737;52.586;13.284;2023-01-28T01:54:25;102297.16;;;-0.29;79.54
31082;BME280;17737;52.586;13.284;2023-01-28T01:56:58;102300.91;;;-0.35;79.73
31082;BME280;17737;52.586;13.284;2023-01-28T01:59:30;102302.47;;;-0.29;79.90
31082;BME280;17737;52.586;13.284;2023-01-28T02:02:02;102303.19;;;-0.26;79.46
31082;BME280;17737;52.586;13.284;2023-01-28T02:04:38;102307.34;;;-0.20;79.07
31082;BME280;17737;52.586;13.284;2023-01-28T02:07:08;102305.16;;;-0.09;79.13
31082;BME280;17737;52.586;13.284;2023-01-28T02:09:39;102308.13;;;0.03;78.30
31082;BME280;17737;52.586;13.284;2023-01-28T02:12:09;102306.88;;;-0.08;78.50
31082;BME280;17737;52.586;13.284;2023-01-28T02:14:41;102298.47;;;0.03;78.36
31082;BME280;17737;52.586;13.284;2023-01-28T02:17:14;102295.38;;;-0.07;78.64
31082;BME280;17737;52.586;13.284;2023-01-28T02:19:47;102293.72;;;0.11;78.01
31082;BME280;17737;52.586;13.284;2023-01-28T02:22:34;102298.78;;;-0.05;78.27
31082;BME280;17737;52.586;13.284;2023-01-28T02:28:51;102292.22;;;-0.17;78.83
31082;BME280;17737;52.586;13.284;2023-01-28T02:31:29;102294.94;;;-0.18;78.80
31082;BME280;17737;52.586;13.284;2023-01-28T02:34:05;102294.25;;;-0.23;78.99
31082;BME280;17737;52.586;13.284;2023-01-28T02:36:42;102300.16;;;0.05;77.81
31082;BME280;17737;52.586;13.284;2023-01-28T02:39:19;102300.09;;;-0.15;78.83
31082;BME280;17737;52.586;13.284;2023-01-28T02:41:54;102308.72;;;-0.10;78.79
31082;BME280;17737;52.586;13.284;2023-01-28T02:44:27;102313.03;;;-0.08;78.79
31082;BME280;17737;52.586;13.284;2023-01-28T02:46:55;102306.19;;;-0.13;79.05
31082;BME280;17737;52.586;13.284;2023-01-28T02:49:44;102301.16;;;-0.19;79.15
31082;BME280;17737;52.586;13.284;2023-01-28T02:52:24;102308.09;;;-0.17;78.58
31082;BME280;17737;52.586;13.284;2023-01-28T02:55:23;102305.50;;;0.03;77.89
31082;BME280;17737;52.586;13.284;2023-01-28T02:58:03;102306.38;;;0.04;77.91
31082;BME280;17737;52.586;13.284;2023-01-28T03:00:55;102311.00;;;-0.01;77.49
31082;BME280;17737;52.586;13.284;2023-01-28T03:03:35;102311.66;;;0.04;77.69
31082;BME280;17737;52.586;13.284;2023-01-28T03:06:20;102300.31;;;0.22;76.97
31082;BME280;17737;52.586;13.284;2023-01-28T03:08:53;102315.84;;;0.10;76.64
31082;BME280;17737;52.586;13.284;2023-01-28T03:11:45;102302.91;;;0.02;76.96
31082;BME280;17737;52.586;13.284;2023-01-28T03:14:34;102305.38;;;0.07;77.04
31082;BME280;17737;52.586;13.284;2023-01-28T03:17:26;102306.63;;;-0.02;76.71
31082;BME280;17737;52.586;13.284;2023-01-28T03:20:16;102299.50;;;0.20;76.80
31082;BME280;17737;52.586;13.284;2023-01-28T03:23:10;102305.84;;;0.16;76.07
31082;BME280;17737;52.586;13.284;2023-01-28T03:26:02;102313.13;;;0.11;76.74
31082;BME280;17737;52.586;13.284;2023-01-28T03:28:53;102302.63;;;0.30;75.66
31082;BME280;17737;52.586;13.284;2023-01-28T03:31:50;102312.84;;;0.17;75.68
31082;BME280;17737;52.586;13.284;2023-01-28T03:34:39;102310.34;;;0.14;73.88
31082;BME280;17737;52.586;13.284;2023-01-28T03:37:25;102298.63;;;0.20;71.40
31082;BME280;17737;52.586;13.284;2023-01-28T03:39:55;102304.00;;;0.18;72.72
31082;BME280;17737;52.586;13.284;2023-01-28T03:42:23;102303.88;;;0.21;73.23
31082;BME280;17737;52.586;13.284;2023-01-28T03:44:51;102310.09;;;0.20;72.90
31082;BME280;17737;52.586;13.284;2023-01-28T03:47:22;102305.63;;;0.42;72.71
31082;BME280;17737;52.586;13.284;2023-01-28T03:49:54;102300.97;;;0.47;70.79
31082;BME280;17737;52.586;13.284;2023-01-28T03:52:26;102305.72;;;0.19;72.29
31082;BME280;17737;52.586;13.284;2023-01-28T03:54:57;102309.53;;;0.12;73.32
31082;BME280;17737;52.586;13.284;2023-01-28T03:57:27;102299.44;;;0.22;73.11
31082;BME280;17737;52.586;13.284;2023-01-28T03:59:57;102298.69;;;0.18;73.15
31082;BME280;17737;52.586;13.284;2023-01-28T04:02:25;102296.72;;;0.23;72.94
31082;BME280;17737;52.586;13.284;2023-01-28T04:04:55;102300.56;;;0.36;72.54
31082;BME280;17737;52.586;13.284;2023-01-28T04:07:24;102301.75;;;0.29;73.07
31082;BME280;17737;52.586;13.284;2023-01-28T04:09:52;102300.09;;;0.47;72.14
31082;BME280;17737;52.586;13.284;2023-01-28T04:12:20;102299.06;;;0.51;71.40
31082;BME280;17737;52.586;13.284;2023-01-28T04:14:49;102297.75;;;0.39;72.33
31082;BME280;17737;52.586;13.284;2023-01-28T04:17:16;102300.44;;;0.59;71.13
31082;BME280;17737;52.586;13.284;2023-01-28T04:19:44;102300.00;;;0.68;70.32
31082;BME280;17737;52.586;13.284;2023-01-28T04:22:14;102307.41;;;0.42;71.38
31082;BME280;17737;52.586;13.284;2023-01-28T04:24:42;102304.66;;;0.43;71.58
31082;BME280;17737;52.586;13.284;2023-01-28T04:27:10;102302.75;;;0.47;71.43
31082;BME280;17737;52.586;13.284;2023-01-28T04:29:37;102304.00;;;0.58;71.13
31082;BME280;17737;52.586;13.284;2023-01-28T04:32:05;102303.09;;;0.59;70.90
31082;BME280;17737;52.586;13.284;2023-01-28T04:34:36;102304.88;;;0.59;70.37
31082;BME280;17737;52.586;13.284;2023-01-28T04:37:04;102307.13;;;0.48;70.74
31082;BME280;17737;52.586;13.284;2023-01-28T04:39:34;102312.50;;;0.46;70.87
31082;BME280;17737;52.586;13.284;2023-01-28T04:42:03;102308.38;;;0.39;71.46
31082;BME280;17737;52.586;13.284;2023-01-28T04:44:38;102298.63;;;0.60;70.29
31082;BME280;17737;52.586;13.284;2023-01-28T04:47:11;102300.00;;;0.68;69.97
31082;BME280;17737;52.586;13.284;2023-01-28T04:49:39;102298.50;;;0.43;70.99
31082;BME280;17737;52.586;13.284;2023-01-28T04:52:07;102297.53;;;0.45;71.19
31082;BME280;17737;52.586;13.284;2023-01-28T04:54:36;102295.53;;;0.50;70.34
31082;BME280;17737;52.586;13.284;2023-01-28T04:57:04;102299.03;;;0.71;69.53
31082;BME280;17737;52.586;13.284;2023-01-28T04:59:32;102297.97;;;0.75;68.77
31082;BME280;17737;52.586;13.284;2023-01-28T05:02:00;102298.44;;;0.64;69.21
31082;BME280;17737;52.586;13.284;2023-01-28T05:04:28;102295.91;;;0.41;70.09
31082;BME280;17737;52.586;13.284;2023-01-28T05:06:56;102299.59;;;0.39;70.56
31082;BME280;17737;52.586;13.284;2023-01-28T05:09:25;102308.59;;;0.35;71.17
31082;BME280;17737;52.586;13.284;2023-01-28T05:11:54;102319.19;;;0.55;69.87
31082;BME280;17737;52.586;13.284;2023-01-28T05:14:22;102315.38;;;0.80;69.23
31082;BME280;17737;52.586;13.284;2023-01-28T05:16:50;102321.13;;;0.71;68.57
31082;BME280;17737;52.586;13.284;2023-01-28T05:19:18;102310.63;;;0.68;69.09
31082;BME280;17737;52.586;13.284;2023-01-28T05:21:46;102325.16;;;0.80;68.36
31082;BME280;17737;52.586;13.284;2023-01-28T05:24:14;102329.53;;;0.61;69.31
31082;BME280;17737;52.586;13.284;2023-01-28T05:26:42;102333.44;;;0.52;69.70
31082;BME280;17737;52.586;13.284;2023-01-28T05:29:11;102326.31;;;0.54;70.00
31082;BME280;17737;52.586;13.284;2023-01-28T05:31:39;102331.25;;;0.62;69.35
31082;BME280;17737;52.586;13.284;2023-01-28T05:34:07;102329.53;;;0.61;69.21
31082;BME280;17737;52.586;13.284;2023-01-28T05:36:35;102323.72;;;0.53;69.69
31082;BME280;17737;52.586;13.284;2023-01-28T05:39:03;102328.00;;;0.55;69.08
31082;BME280;17737;52.586;13.284;2023-01-28T05:41:33;102322.03;;;0.50;68.16
31082;BME280;17737;52.586;13.284;2023-01-28T05:44:01;102325.28;;;0.57;68.85
31082;BME280;17737;52.586;13.284;2023-01-28T05:46:30;102320.34;;;0.49;69.79
31082;BME280;17737;52.586;13.284;2023-01-28T05:48:58;102328.06;;;0.54;69.87
31082;BME280;17737;52.586;13.284;2023-01-28T05:51:26;102325.34;;;0.55;69.73
31082;BME280;17737;52.586;13.284;2023-01-28T05:53:54;102336.09;;;0.52;69.54
31082;BME280;17737;52.586;13.284;2023-01-28T05:56:22;102331.47;;;0.57;69.65
31082;BME280;17737;52.586;13.284;2023-01-28T05:58:50;102319.72;;;0.63;69.12
31082;BME280;17737;52.586;13.284;2023-01-28T06:01:18;102322.56;;;0.58;69.26
31082;BME280;17737;52.586;13.284;2023-01-28T06:03:48;102319.38;;;0.70;68.88
31082;BME280;17737;52.586;13.284;2023-01-28T06:06:16;102322.56;;;0.58;69.28
31082;BME280;17737;52.586;13.284;2023-01-28T06:08:44;102320.06;;;0.55;69.63
31082;BME280;17737;52.586;13.284;2023-01-28T06:11:12;102322.84;;;0.72;68.51
31082;BME280;17737;52.586;13.284;2023-01-28T06:13:39;102329.16;;;0.70;67.16
31082;BME280;17737;52.586;13.284;2023-01-28T06:16:08;102329.59;;;0.79;66.79
31082;BME280;17737;52.586;13.284;2023-01-28T06:18:36;102331.41;;;0.97;66.92
31082;BME280;17737;52.586;13.284;2023-01-28T06:21:05;102329.44;;;0.82;66.75
31082;BME280;17737;52.586;13.284;2023-01-28T06:23:33;102332.13;;;0.62;67.89
31082;BME280;17737;52.586;13.284;2023-01-28T06:26:01;102337.81;;;0.53;69.02
31082;BME280;17737;52.586;13.284;2023-01-28T06:28:30;102333.38;;;0.54;69.03
31082;BME280;17737;52.586;13.284;2023-01-28T06:30:58;102337.63;;;0.78;67.19
31082;BME280;17737;52.586;13.284;2023-01-28T06:33:26;102334.16;;;0.76;67.13
31082;BME280;17737;52.586;13.284;2023-01-28T06:35:55;102327.78;;;1.00;65.91
31082;BME280;17737;52.586;13.284;2023-01-28T06:38:24;102335.81;;;0.98;66.17
31082;BME280;17737;52.586;13.284;2023-01-28T06:40:52;102341.38;;;0.92;66.91
31082;BME280;17737;52.586;13.284;2023-01-28T06:43:21;102343.97;;;0.94;67.27
31082;BME280;17737;52.586;13.284;2023-01-28T06:45:53;102344.38;;;0.65;67.93
31082;BME280;17737;52.586;13.284;2023-01-28T06:48:21;102337.44;;;0.62;68.57
31082;BME280;17737;52.586;13.284;2023-01-28T06:50:50;102339.28;;;0.60;68.50
31082;BME280;17737;52.586;13.284;2023-01-28T06:53:19;102341.81;;;0.83;67.62
31082;BME280;17737;52.586;13.284;2023-01-28T06:55:49;102346.28;;;1.01;67.21
31082;BME280;17737;52.586;13.284;2023-01-28T06:58:17;102344.56;;;1.00;67.65
31082;BME280;17737;52.586;13.284;2023-01-28T07:00:45;102348.59;;;1.09;66.69
31082;BME280;17737;52.586;13.284;2023-01-28T07:03:13;102351.66;;;1.00;66.40
31082;BME280;17737;52.586;13.284;2023-01-28T07:05:41;102353.72;;;0.93;66.49
31082;BME280;17737;52.586;13.284;2023-01-28T07:08:08;102353.44;;;0.99;65.34
31082;BME280;17737;52.586;13.284;2023-01-28T07:10:36;102348.06;;;1.01;64.90
31082;BME280;17737;52.586;13.284;2023-01-28T07:13:06;102349.72;;;1.03;65.80
31082;BME280;17737;52.586;13.284;2023-01-28T07:15:34;102355.69;;;1.08;64.27
31082;BME280;17737;52.586;13.284;2023-01-28T07:18:02;102343.16;;;1.12;64.60
31082;BME280;17737;52.586;13.284;2023-01-28T07:20:30;102344.78;;;1.14;64.75
31082;BME280;17737;52.586;13.284;2023-01-28T07:22:58;102343.00;;;1.15;65.29
31082;BME280;17737;52.586;13.284;2023-01-28T07:25:26;102352.09;;;1.09;65.65
31082;BME280;17737;52.586;13.284;2023-01-28T07:27:54;102360.22;;;1.06;66.03
31082;BME280;17737;52.586;13.284;2023-01-28T07:30:24;102356.75;;;1.04;66.22
31082;BME280;17737;52.586;13.284;2023-01-28T07:32:53;102356.09;;;0.99;66.55
31082;BME280;17737;52.586;13.284;2023-01-28T07:35:21;102349.19;;;1.15;65.83
31082;BME280;17737;52.586;13.284;2023-01-28T07:37:51;102344.63;;;1.17;65.45
31082;BME280;17737;52.586;13.284;2023-01-28T07:40:20;102343.50;;;1.23;64.02
31082;BME280;17737;52.586;13.284;2023-01-28T07:42:48;102353.88;;;1.29;63.47
31082;BME280;17737;52.586;13.284;2023-01-28T07:45:17;102343.31;;;1.28;63.66
31082;BME280;17737;52.586;13.284;2023-01-28T07:47:54;102346.00;;;1.26;63.57
31082;BME280;17737;52.586;13.284;2023-01-28T07:50:23;102348.31;;;1.15;63.23
31082;BME280;17737;52.586;13.284;2023-01-28T07:52:52;102350.81;;;1.18;63.39
31082;BME280;17737;52.586;13.284;2023-01-28T07:55:20;102348.66;;;1.26;63.46
31082;BME280;17737;52.586;13.284;2023-01-28T07:57:50;102355.00;;;1.23;64.01
31082;BME280;17737;52.586;13.284;2023-01-28T08:00:19;102352.34;;;1.23;64.84
31082;BME280;17737;52.586;13.284;2023-01-28T08:02:50;102351.31;;;1.26;64.86
31082;BME280;17737;52.586;13.284;2023-01-28T08:05:25;102353.94;;;1.28;63.76
31082;BME280;17737;52.586;13.284;2023-01-28T08:07:57;102358.22;;;1.49;62.58
31082;BME280;17737;52.586;13.284;2023-01-28T08:10:25;102368.22;;;1.62;62.25
31082;BME280;17737;52.586;13.284;2023-01-28T08:12:54;102368.50;;;1.75;61.82
31082;BME280;17737;52.586;13.284;2023-01-28T08:15:24;102375.84;;;1.70;61.76
31082;BME280;17737;52.586;13.284;2023-01-28T08:17:53;102373.53;;;1.44;63.10
31082;BME280;17737;52.586;13.284;2023-01-28T08:20:23;102377.31;;;1.57;63.17
31082;BME280;17737;52.586;13.284;2023-01-28T08:22:52;102383.00;;;1.31;64.33
31082;BME280;17737;52.586;13.284;2023-01-28T08:25:21;102378.97;;;1.41;63.82
31082;BME280;17737;52.586;13.284;2023-01-28T08:27:49;102376.75;;;1.32;64.61
31082;BME280;17737;52.586;13.284;2023-01-28T08:30:17;102390.41;;;1.43;64.69
31082;BME280;17737;52.586;13.284;2023-01-28T08:32:45;102379.72;;;1.44;64.68
31082;BME280;17737;52.586;13.284;2023-01-28T08:35:13;102388.03;;;1.55;64.34
31082;BME280;17737;52.586;13.284;2023-01-28T08:37:42;102401.59;;;1.68;64.59
31082;BME280;17737;52.586;13.284;2023-01-28T08:40:11;102400.81;;;1.66;64.04
31082;BME280;17737;52.586;13.284;2023-01-28T08:42:45;102397.44;;;1.62;63.54
31082;BME280;17737;52.586;13.284;2023-01-28T08:45:14;102398.16;;;1.84;62.86
31082;BME280;17737;52.586;13.284;2023-01-28T08:47:49;102394.50;;;1.68;62.28
31082;BME280;17737;52.586;13.284;2023-01-28T08:50:18;102392.28;;;1.78;61.87
31082;BME280;17737;52.586;13.284;2023-01-28T08:52:54;102394.44;;;1.70;63.02
31082;BME280;17737;52.586;13.284;2023-01-28T08:55:24;102391.69;;;1.71;62.41
31082;BME280;17737;52.586;13.284;2023-01-28T08:57:53;102394.97;;;1.95;62.32
31082;BME280;17737;52.586;13.284;2023-01-28T09:00:24;102402.31;;;1.90;62.15
31082;BME280;17737;52.586;13.284;2023-01-28T09:02:52;102402.63;;;1.84;61.54
31082;BME280;17737;52.586;13.284;2023-01-28T09:05:20;102410.00;;;1.77;61.46
31082;BME280;17737;52.586;13.284;2023-01-28T09:07:50;102418.41;;;2.05;60.89
31082;BME280;17737;52.586;13.284;2023-01-28T09:10:18;102415.38;;;1.94;61.18
31082;BME280;17737;52.586;13.284;2023-01-28T09:12:47;102418.00;;;2.13;60.48
31082;BME280;17737;52.586;13.284;2023-01-28T09:15:16;102416.81;;;2.01;60.88
31082;BME280;17737;52.586;13.284;2023-01-28T09:17:44;102417.13;;;1.95;61.40
31082;BME280;17737;52.586;13.284;2023-01-28T09:20:12;102424.88;;;2.00;61.27
31082;BME280;17737;52.586;13.284;2023-01-28T09:22:40;102423.41;;;2.11;60.22
31082;BME280;17737;52.586;13.284;2023-01-28T09:25:10;102426.94;;;2.12;60.87
31082;BME280;17737;52.586;13.284;2023-01-28T09:27:38;102432.84;;;2.35;60.51
31082;BME280;17737;52.586;13.284;2023-01-28T09:30:07;102434.22;;;2.44;59.99
31082;BME280;17737;52.586;13.284;2023-01-28T09:32:36;102427.94;;;2.28;60.77
31082;BME280;17737;52.586;13.284;2023-01-28T09:35:04;102440.91;;;2.34;59.96
31082;BME280;17737;52.586;13.284;2023-01-28T09:37:32;102440.03;;;2.33;60.16
31082;BME280;17737;52.586;13.284;2023-01-28T09:40:01;102443.28;;;2.40;60.61
31082;BME280;17737;52.586;13.284;2023-01-28T09:42:46;102441.81;;;2.16;61.61
31082;BME280;17737;52.586;13.284;2023-01-28T09:45:31;102438.22;;;2.17;61.19
31082;BME280;17737;52.586;13.284;2023-01-28T09:48:07;102438.06;;;2.20;61.58
31082;BME280;17737;52.586;13.284;2023-01-28T09:50:43;102443.34;;;2.38;60.04
31082;BME280;17737;52.586;13.284;2023-01-28T09:53:18;102442.59;;;2.36;59.75
31082;BME280;17737;52.586;13.284;2023-01-28T09:55:53;102444.13;;;2.40;59.61
31082;BME280;17737;52.586;13.284;2023-01-28T09:58:25;102445.75;;;2.62;58.80
31082;BME280;17737;52.586;13.284;2023-01-28T10:00:58;102449.00;;;2.50;59.84
31082;BME280;17737;52.586;13.284;2023-01-28T10:03:38;102445.28;;;2.54;59.53
31082;BME280;17737;52.586;13.284;2023-01-28T10:06:21;102441.28;;;2.45;59.20
31082;BME280;17737;52.586;13.284;2023-01-28T10:09:13;102442.59;;;2.36;60.54
31082;BME280;17737;52.586;13.284;2023-01-28T10:12:04;102435.31;;;2.40;60.69
31082;BME280;17737;52.586;13.284;2023-01-28T10:14:53;102441.97;;;2.49;59.88
31082;BME280;17737;52.586;13.284;2023-01-28T10:17:39;102431.72;;;2.41;60.33
31082;BME280;17737;52.586;13.284;2023-01-28T10:20:18;102432.66;;;2.40;60.41
31082;BME280;17737;52.586;13.284;2023-01-28T10:22:54;102440.13;;;2.32;59.84
31082;BME280;17737;52.586;13.284;2023-01-28T10:25:29;102426.66;;;2.35;60.21
31082;BME280;17737;52.586;13.284;2023-01-28T10:28:00;102423.88;;;2.38;59.70
31082;BME280;17737;52.586;13.284;2023-01-28T10:30:32;102429.31;;;2.35;59.79
31082;BME280;17737;52.586;13.284;2023-01-28T10:33:04;102427.16;;;2.26;60.23
31082;BME280;17737;52.586;13.284;2023-01-28T10:35:42;102425.47;;;2.23;59.81
31082;BME280;17737;52.586;13.284;2023-01-28T10:38:14;102421.66;;;2.29;61.15
31082;BME280;17737;52.586;13.284;2023-01-28T10:40:44;102434.47;;;2.21;61.80
31082;BME280;17737;52.586;13.284;2023-01-28T10:43:14;102430.66;;;2.08;62.06
31082;BME280;17737;52.586;13.284;2023-01-28T10:45:53;102428.47;;;1.99;62.70
31082;BME280;17737;52.586;13.284;2023-01-28T10:48:28;102418.41;;;2.05;62.64
31082;BME280;17737;52.586;13.284;2023-01-28T10:51:01;102420.84;;;1.91;62.52
31082;BME280;17737;52.586;13.284;2023-01-28T10:53:34;102418.47;;;2.04;63.29
31082;BME280;17737;52.586;13.284;2023-01-28T10:56:05;102423.28;;;2.14;62.64
31082;BME280;17737;52.586;13.284;2023-01-28T10:58:44;102417.72;;;2.19;62.71
31082;BME280;17737;52.586;13.284;2023-01-28T11:01:18;102418.84;;;1.96;63.53
31082;BME280;17737;52.586;13.284;2023-01-28T11:03:54;102422.72;;;1.89;64.00
31082;BME280;17737;52.586;13.284;2023-01-28T11:06:26;102420.44;;;1.82;63.67
31082;BME280;17737;52.586;13.284;2023-01-28T11:08:55;102425.75;;;1.82;63.37
31082;BME280;17737;52.586;13.284;2023-01-28T11:11:27;102424.31;;;1.75;64.28
31082;BME280;17737;52.586;13.284;2023-01-28T11:13:56;102422.22;;;2.00;64.44
31082;BME280;17737;52.586;13.284;2023-01-28T11:16:27;102420.13;;;2.06;64.38
31082;BME280;17737;52.586;13.284;2023-01-28T11:18:57;102411.38;;;2.21;63.75
31082;BME280;17737;52.586;13.284;2023-01-28T11:21:30;102406.94;;;2.22;64.21
31082;BME280;17737;52.586;13.284;2023-01-28T11:24:02;102410.03;;;2.13;62.89
31082;BME280;17737;52.586;13.284;2023-01-28T11:26:35;102413.28;;;2.19;62.88
31082;BME280;17737;52.586;13.284;2023-01-28T11:29:05;102409.75;;;2.19;63.66
31082;BME280;17737;52.586;13.284;2023-01-28T11:31:41;102406.25;;;2.35;63.10
31082;BME280;17737;52.586;13.284;2023-01-28T11:34:13;102406.88;;;2.23;63.63
31082;BME280;17737;52.586;13.284;2023-01-28T11:36:49;102402.66;;;2.19;64.02
31082;BME280;17737;52.586;13.284;2023-01-28T11:39:20;102395.91;;;2.12;63.91
31082;BME280;17737;52.586;13.284;2023-01-28T11:41:52;102397.41;;;2.18;64.07
31082;BME280;17737;52.586;13.284;2023-01-28T11:44:23;102384.47;;;2.10;63.88
31082;BME280;17737;52.586;13.284;2023-01-28T11:50:04;102388.03;;;2.28;64.03
31082;BME280;17737;52.586;13.284;2023-01-28T11:52:57;102383.13;;;2.37;64.04
31082;BME280;17737;52.586;13.284;2023-01-28T11:55:40;102386.00;;;2.33;64.02
31082;BME280;17737;52.586;13.284;2023-01-28T11:58:21;102389.50;;;2.33;62.99
31082;BME280;17737;52.586;13.284;2023-01-28T12:01:08;102380.66;;;2.16;63.73
31082;BME280;17737;52.586;13.284;2023-01-28T12:03:59;102372.81;;;2.13;63.56
31082;BME280;17737;52.586;13.284;2023-01-28T12:06:52;102376.75;;;2.06;64.03
31082;BME280;17737;52.586;13.284;2023-01-28T12:09:33;102382.63;;;2.12;64.20
31082;BME280;17737;52.586;13.284;2023-01-28T12:12:20;102375.63;;;2.10;64.37
31082;BME280;17737;52.586;13.284;2023-01-28T12:18:11;102368.81;;;2.04;64.53
31082;BME280;17737;52.586;13.284;2023-01-28T12:20:59;102368.53;;;2.10;64.05
31082;BME280;17737;52.586;13.284;2023-01-28T12:23:52;102372.69;;;2.16;63.64
31082;BME280;17737;52.586;13.284;2023-01-28T12:26:37;102379.44;;;2.04;64.37
31082;BME280;17737;52.586;13.284;2023-01-28T12:29:24;102371.19;;;2.10;64.44
31082;BME280;17737;52.586;13.284;2023-01-28T12:32:11;102383.41;;;1.96;63.87
31082;BME280;17737;52.586;13.284;2023-01-28T12:35:27;102371.53;;;2.03;63.84
31082;BME280;17737;52.586;13.284;2023-01-28T12:38:08;102359.03;;;2.05;63.39
31082;BME280;17737;52.586;13.284;2023-01-28T12:43:45;102365.06;;;2.08;63.29
31082;BME280;17737;52.586;13.284;2023-01-28T12:46:28;102359.69;;;2.10;63.17
31082;BME280;17737;52.586;13.284;2023-01-28T12:49:06;102359.69;;;2.10;63.23
31082;BME280;17737;52.586;13.284;2023-01-28T12:51:46;102357.41;;;2.02;63.82
31082;BME280;17737;52.586;13.284;2023-01-28T12:54:32;102356.19;;;2.09;63.12
31082;BME280;17737;52.586;13.284;2023-01-28T12:57:08;102361.97;;;2.17;62.52
31082;BME280;17737;52.586;13.284;2023-01-28T12:59:45;102346.19;;;1.96;62.98
31082;BME280;17737;52.586;13.284;2023-01-28T13:02:23;102340.59;;;2.02;62.25
31082;BME280;17737;52.586;13.284;2023-01-28T13:04:58;102339.03;;;2.15;62.08
31082;BME280;17737;52.586;13.284;2023-01-28T13:07:38;102335.69;;;2.28;61.77
31082;BME280;17737;52.586;13.284;2023-01-28T13:10:18;102322.81;;;2.38;60.52
31082;BME280;17737;52.586;13.284;2023-01-28T13:12:51;102330.00;;;2.36;59.42
31082;BME280;17737;52.586;13.284;2023-01-28T13:15:20;102324.13;;;2.29;60.14
31082;BME280;17737;52.586;13.284;2023-01-28T13:17:54;102325.38;;;2.39;63.10
31082;BME280;17737;52.586;13.284;2023-01-28T13:20:36;102320.84;;;2.41;61.14
31082;BME280;17737;52.586;13.284;2023-01-28T13:23:22;102317.72;;;2.33;60.46
31082;BME280;17737;52.586;13.284;2023-01-28T13:25:54;102319.03;;;2.42;59.47
31082;BME280;17737;52.586;13.284;2023-01-28T13:28:27;102318.41;;;2.54;59.08
31082;BME280;17737;52.586;13.284;2023-01-28T13:31:02;102303.47;;;2.52;59.12